createdAt,value
2022-08-05T00:04:40.000Z,984.86
2022-08-05T00:09:35.000Z,984.52
2022-08-05T00:14:30.000Z,984.66
2022-08-05T00:19:25.000Z,984.45
2022-08-05T00:24:20.000Z,984.41
2022-08-05T00:29:15.000Z,984.40
2022-08-05T00:34:09.000Z,984.13
2022-08-05T00:39:04.000Z,983.99
2022-08-05T00:43:59.000Z,983.77
2022-08-05T00:48:54.000Z,983.71
2022-08-05T00:53:49.000Z,983.76
2022-08-05T00:58:44.000Z,983.99
2022-08-05T01:03:39.000Z,984.42
2022-08-05T01:08:33.000Z,984.48
2022-08-05T01:13:28.000Z,984.09
2022-08-05T01:18:23.000Z,984.24
2022-08-05T01:23:18.000Z,984.19
2022-08-05T01:28:12.000Z,984.17
2022-08-05T01:33:07.000Z,984.05
2022-08-05T01:38:02.000Z,984.08
2022-08-05T01:42:57.000Z,983.63
2022-08-05T01:47:52.000Z,983.44
2022-08-05T01:52:45.000Z,983.31
2022-08-05T01:57:40.000Z,983.33
2022-08-05T02:02:34.000Z,983.50
2022-08-05T02:07:29.000Z,983.66
2022-08-05T02:12:24.000Z,983.67
2022-08-05T02:17:18.000Z,983.90
2022-08-05T02:22:13.000Z,984.06
2022-08-05T02:27:08.000Z,983.98
2022-08-05T02:32:03.000Z,984.35
2022-08-05T02:36:58.000Z,984.44
2022-08-05T02:41:52.000Z,985.09
2022-08-05T02:46:46.000Z,985.61
2022-08-05T02:51:40.000Z,985.87
2022-08-05T02:56:34.000Z,986.33
2022-08-05T03:01:29.000Z,986.44
2022-08-05T03:06:23.000Z,986.21
2022-08-05T03:11:17.000Z,986.16
2022-08-05T03:16:11.000Z,986.25
2022-08-05T03:21:06.000Z,986.26
2022-08-05T03:26:01.000Z,986.17
2022-08-05T03:30:55.000Z,986.40
2022-08-05T03:35:50.000Z,986.74
2022-08-05T03:40:45.000Z,986.53
2022-08-05T03:45:39.000Z,986.59
2022-08-05T03:50:34.000Z,986.26
2022-08-05T03:55:29.000Z,986.12
2022-08-05T04:00:24.000Z,986.06
2022-08-05T04:05:18.000Z,985.93
2022-08-05T04:10:13.000Z,985.94
2022-08-05T04:15:08.000Z,985.41
2022-08-05T04:20:02.000Z,985.06
2022-08-05T04:24:57.000Z,985.20
2022-08-05T04:29:52.000Z,985.08
2022-08-05T04:34:46.000Z,985.18
2022-08-05T04:39:41.000Z,985.29
2022-08-05T04:44:36.000Z,985.27
2022-08-05T04:49:30.000Z,985.31
2022-08-05T04:54:24.000Z,985.05
2022-08-05T04:59:19.000Z,984.57
2022-08-05T05:04:13.000Z,984.43
2022-08-05T05:09:08.000Z,984.54
2022-08-05T05:14:02.000Z,985.35
2022-08-05T05:18:56.000Z,985.58
2022-08-05T05:23:51.000Z,985.48
2022-08-05T05:28:46.000Z,985.53
2022-08-05T05:33:40.000Z,985.62
2022-08-05T05:38:35.000Z,985.37
2022-08-05T05:43:30.000Z,985.10
2022-08-05T05:48:25.000Z,984.90
2022-08-05T05:53:19.000Z,984.91
2022-08-05T05:58:14.000Z,985.05
2022-08-05T06:03:09.000Z,984.89
2022-08-05T06:08:04.000Z,985.24
2022-08-05T06:12:59.000Z,985.27
2022-08-05T06:17:53.000Z,985.29
2022-08-05T06:22:47.000Z,985.18
2022-08-05T06:27:42.000Z,985.40
2022-08-05T06:32:37.000Z,985.49
2022-08-05T06:37:32.000Z,985.61
2022-08-05T06:42:27.000Z,985.54
2022-08-05T06:47:22.000Z,985.74
2022-08-05T06:52:17.000Z,985.82
2022-08-05T06:57:12.000Z,985.69
2022-08-05T07:02:07.000Z,985.83
2022-08-05T07:07:02.000Z,985.91
2022-08-05T07:11:56.000Z,985.76
2022-08-05T07:16:51.000Z,985.86
2022-08-05T07:21:45.000Z,985.86
2022-08-05T07:26:40.000Z,985.99
2022-08-05T07:31:34.000Z,986.05
2022-08-05T07:36:29.000Z,986.22
2022-08-05T07:41:24.000Z,986.17
2022-08-05T07:46:18.000Z,986.32
2022-08-05T07:51:12.000Z,986.36
2022-08-05T07:56:07.000Z,986.50
2022-08-05T08:01:01.000Z,986.60
2022-08-05T08:05:56.000Z,986.68
2022-08-05T08:10:51.000Z,986.73
2022-08-05T08:15:45.000Z,986.80
2022-08-05T08:20:40.000Z,986.90
2022-08-05T08:25:35.000Z,986.86
2022-08-05T08:30:29.000Z,986.91
2022-08-05T08:35:24.000Z,986.86
2022-08-05T08:40:18.000Z,986.95
2022-08-05T08:45:12.000Z,986.53
2022-08-05T08:50:10.000Z,986.76
2022-08-05T08:55:02.000Z,986.75
2022-08-05T08:59:57.000Z,986.75
2022-08-05T09:04:52.000Z,986.65
2022-08-05T09:09:47.000Z,986.84
2022-08-05T09:14:41.000Z,987.01
2022-08-05T09:19:36.000Z,987.14
2022-08-05T09:24:30.000Z,986.97
2022-08-05T09:29:24.000Z,986.97
2022-08-05T09:34:18.000Z,986.81
2022-08-05T09:39:12.000Z,986.79
2022-08-05T09:44:06.000Z,986.70
2022-08-05T09:49:01.000Z,987.07
2022-08-05T09:53:56.000Z,987.25
2022-08-05T09:58:51.000Z,987.16
2022-08-05T10:03:46.000Z,987.22
2022-08-05T10:08:38.000Z,987.23
2022-08-05T10:13:32.000Z,987.31
2022-08-05T10:18:27.000Z,987.46
2022-08-05T10:23:21.000Z,987.43
2022-08-05T10:28:15.000Z,987.43
2022-08-05T10:33:10.000Z,987.52
2022-08-05T10:38:06.000Z,987.57
2022-08-05T10:43:01.000Z,987.65
2022-08-05T10:47:55.000Z,987.60
2022-08-05T10:52:49.000Z,987.56
2022-08-05T10:57:46.000Z,987.66
2022-08-05T11:02:41.000Z,987.74
2022-08-05T11:07:35.000Z,987.79
2022-08-05T11:12:31.000Z,987.92
2022-08-05T11:17:27.000Z,987.92
2022-08-05T11:22:20.000Z,987.95
2022-08-05T11:27:13.000Z,988.02
2022-08-05T11:32:06.000Z,987.97
2022-08-05T11:37:00.000Z,988.05
2022-08-05T11:41:53.000Z,988.08
2022-08-05T11:46:46.000Z,988.15
2022-08-05T11:51:40.000Z,988.34
2022-08-05T11:56:35.000Z,988.43
2022-08-05T12:01:30.000Z,988.51
2022-08-05T12:06:24.000Z,988.67
2022-08-05T12:11:18.000Z,988.76
2022-08-05T12:16:12.000Z,988.82
2022-08-05T12:21:07.000Z,988.83
2022-08-05T12:26:01.000Z,988.92
2022-08-05T12:30:56.000Z,989.04
2022-08-05T12:35:50.000Z,989.13
2022-08-05T12:40:43.000Z,989.24
2022-08-05T12:45:36.000Z,989.32
2022-08-05T12:50:31.000Z,989.44
2022-08-05T12:55:26.000Z,989.57
2022-08-05T13:00:20.000Z,989.66
2022-08-05T13:05:14.000Z,989.68
2022-08-05T13:10:09.000Z,989.61
2022-08-05T13:15:04.000Z,989.75
2022-08-05T13:19:59.000Z,989.84
2022-08-05T13:24:54.000Z,989.93
2022-08-05T13:29:47.000Z,989.88
2022-08-05T13:34:42.000Z,989.95
2022-08-05T13:39:36.000Z,990.03
2022-08-05T13:44:31.000Z,989.99
2022-08-05T13:49:26.000Z,990.02
2022-08-05T13:54:21.000Z,990.05
2022-08-05T13:59:15.000Z,990.03
2022-08-05T14:04:10.000Z,990.14
2022-08-05T14:09:05.000Z,990.03
2022-08-05T14:14:00.000Z,990.19
2022-08-05T14:18:54.000Z,990.19
2022-08-05T14:23:48.000Z,990.21
2022-08-05T14:28:43.000Z,990.17
2022-08-05T14:33:38.000Z,990.21
2022-08-05T14:38:33.000Z,990.08
2022-08-05T14:43:29.000Z,990.11
2022-08-05T14:48:26.000Z,990.05
2022-08-05T14:53:21.000Z,990.11
2022-08-05T14:58:17.000Z,990.11
2022-08-05T15:03:13.000Z,990.11
2022-08-05T15:08:07.000Z,990.10
2022-08-05T15:13:01.000Z,989.97
2022-08-05T15:17:55.000Z,990.11
2022-08-05T15:22:50.000Z,990.12
2022-08-05T15:27:44.000Z,990.13
2022-08-05T15:32:39.000Z,990.19
2022-08-05T15:37:35.000Z,990.28
2022-08-05T15:42:30.000Z,990.16
2022-08-05T15:47:26.000Z,990.16
2022-08-05T15:52:21.000Z,990.18
2022-08-05T15:57:16.000Z,990.23
2022-08-05T16:02:11.000Z,990.17
2022-08-05T16:07:06.000Z,990.29
2022-08-05T16:12:01.000Z,990.23
2022-08-05T16:16:55.000Z,990.22
2022-08-05T16:21:48.000Z,990.27
2022-08-05T16:26:42.000Z,990.27
2022-08-05T16:31:35.000Z,990.35
2022-08-05T16:36:29.000Z,990.40
2022-08-05T16:41:23.000Z,990.47
2022-08-05T16:46:17.000Z,990.51
2022-08-05T16:51:11.000Z,990.59
2022-08-05T16:56:05.000Z,990.62
2022-08-05T17:00:59.000Z,990.71
2022-08-05T17:05:53.000Z,990.73
2022-08-05T17:10:46.000Z,990.85
2022-08-05T17:15:41.000Z,990.83
2022-08-05T17:20:36.000Z,990.88
2022-08-05T17:25:29.000Z,990.87
2022-08-05T17:30:24.000Z,990.95
2022-08-05T17:35:18.000Z,991.08
2022-08-05T17:40:13.000Z,991.05
2022-08-05T17:45:07.000Z,991.09
2022-08-05T17:50:01.000Z,991.10
2022-08-05T17:54:56.000Z,991.15
2022-08-05T17:59:50.000Z,991.21
2022-08-05T18:04:45.000Z,991.25
2022-08-05T18:09:39.000Z,991.42
2022-08-05T18:14:33.000Z,991.42
2022-08-05T18:19:27.000Z,991.38
2022-08-05T18:24:22.000Z,991.50
2022-08-05T18:29:16.000Z,991.57
2022-08-05T18:34:11.000Z,991.65
2022-08-05T18:39:05.000Z,991.61
2022-08-05T18:44:00.000Z,991.65
2022-08-05T18:48:55.000Z,991.73
2022-08-05T18:53:49.000Z,991.78
2022-08-05T18:58:44.000Z,991.84
2022-08-05T19:03:38.000Z,991.96
2022-08-05T19:08:33.000Z,992.06
2022-08-05T19:13:28.000Z,992.11
2022-08-05T19:18:22.000Z,992.25
2022-08-05T19:23:16.000Z,992.39
2022-08-05T19:28:10.000Z,992.54
2022-08-05T19:33:05.000Z,992.61
2022-08-05T19:37:59.000Z,992.62
2022-08-05T19:42:54.000Z,992.72
2022-08-05T19:47:48.000Z,992.82
2022-08-05T19:52:42.000Z,992.96
2022-08-05T19:57:37.000Z,993.00
2022-08-05T20:02:31.000Z,993.07
2022-08-05T20:07:26.000Z,993.09
2022-08-05T20:12:20.000Z,993.12
2022-08-05T20:17:15.000Z,993.22
2022-08-05T20:22:09.000Z,993.24
2022-08-05T20:27:04.000Z,993.33
2022-08-05T20:31:58.000Z,993.24
2022-08-05T20:36:52.000Z,993.31
2022-08-05T20:41:47.000Z,993.36
2022-08-05T20:46:41.000Z,993.37
2022-08-05T20:51:36.000Z,993.45
2022-08-05T20:56:31.000Z,993.54
2022-08-05T21:01:25.000Z,993.58
2022-08-05T21:06:20.000Z,993.50
2022-08-05T21:11:14.000Z,993.75
2022-08-05T21:16:09.000Z,993.82
2022-08-05T21:21:03.000Z,993.84
2022-08-05T21:25:58.000Z,993.87
2022-08-05T21:30:51.000Z,994.01
2022-08-05T21:35:46.000Z,994.01
2022-08-05T21:40:40.000Z,994.07
2022-08-05T21:45:35.000Z,994.08
2022-08-05T21:50:29.000Z,994.11
2022-08-05T21:55:24.000Z,994.11
2022-08-05T22:00:19.000Z,994.07
2022-08-05T22:05:13.000Z,994.09
2022-08-05T22:10:08.000Z,994.14
2022-08-05T22:15:03.000Z,994.10
2022-08-05T22:19:58.000Z,994.19
2022-08-05T22:24:53.000Z,994.26
2022-08-05T22:29:48.000Z,994.28
2022-08-05T22:34:42.000Z,994.22
2022-08-05T22:39:37.000Z,994.29
2022-08-05T22:44:30.000Z,994.27
2022-08-05T22:49:25.000Z,994.38
2022-08-05T22:54:19.000Z,994.42
2022-08-05T22:59:14.000Z,994.46
2022-08-05T23:04:09.000Z,994.47
2022-08-05T23:09:03.000Z,994.53
2022-08-05T23:13:58.000Z,994.55
2022-08-05T23:18:52.000Z,994.67
2022-08-05T23:23:47.000Z,994.73
2022-08-05T23:28:41.000Z,994.76
2022-08-05T23:33:36.000Z,994.79
2022-08-05T23:38:31.000Z,994.93
2022-08-05T23:43:26.000Z,994.94
2022-08-05T23:48:20.000Z,995.01
2022-08-05T23:53:15.000Z,995.12
2022-08-05T23:58:10.000Z,995.15
